ADDS METAR Data INFO
IDs: Format: Raw Decoded Include TAF

Data at: 0400 UTC 11 Dec 2017

KMTJ 110353Z AUTO 16006KT 10SM CLR M06/M17 A3054 RMK AO2 SLP374 T10561172
KMTJ 110253Z AUTO 16008KT 10SM CLR M04/M17 A3053 RMK AO2 SLP380 T10441167 50007
KMTJ 110153Z AUTO 14008KT 10SM CLR M04/M17 A3054 RMK AO2 SLP385 T10441172
KMTJ 110053Z AUTO 00000KT 10SM CLR 02/M17 A3052 RMK AO2 SLP363 T00171172
KMTJ 102353Z AUTO 36005KT 10SM CLR 05/M17 A3051 RMK AO2 SLP347 T00501172 10078 20017 56007
KMTJ 102253Z AUTO 00000KT 10SM CLR 08/M18 A3051 RMK AO2 SLP340 T00781183
KMTJ 102153Z AUTO 00000KT 10SM CLR 08/M18 A3052 RMK AO2 SLP342 T00781183
KMTJ 102053Z AUTO 00000KT 10SM CLR 07/M17 A3053 RMK AO2 SLP351 T00671172 56026
KMTJ 101953Z AUTO 33004KT 10SM CLR 05/M16 A3056 RMK AO2 SLP362 T00501161
KMTJ 101853Z AUTO 36004KT 10SM CLR 04/M16 A3059 RMK AO2 SLP375 T00391156
KMTJ 101753Z AUTO 00000KT 10SM CLR 02/M17 A3062 RMK AO2 SLP388 T00171167 10017 21117 58001
KMTJ 101653Z AUTO 00000KT 10SM CLR M01/M16 A3064 RMK AO2 SLP402 T10111161
KMTJ 101553Z AUTO 15004KT 10SM CLR M06/M17 A3064 RMK AO2 SLP409 T10561167
KMTJ 101453Z AUTO 16006KT 10SM CLR M10/M17 A3063 RMK AO2 SLP410 T11001172 52005
KMTJ 101353Z AUTO 15007KT 10SM CLR M12/M18 A3062 RMK AO2 SLP414 T11171178
KMTJ 101253Z AUTO 15005KT 10SM CLR M11/M18 A3062 RMK AO2 SLP403 T11111178
KMTJ 101153Z AUTO 17006KT 10SM CLR M10/M17 A3061 RMK AO2 SLP386 T11001172 11061 21106 53003
KMTJ 101053Z AUTO 17006KT 10SM CLR M09/M17 A3060 RMK AO2 SLP372 T10941172
KMTJ 100953Z AUTO 15007KT 10SM CLR M09/M17 A3060 RMK AO2 SLP373 T10891172
KMTJ 100853Z AUTO 16007KT 10SM CLR M09/M17 A3060 RMK AO2 SLP374 T10941172 50001
KMTJ 100753Z AUTO 16006KT 10SM CLR M08/M17 A3060 RMK AO2 SLP377 T10831172
KMTJ 100653Z AUTO 17009KT 10SM CLR M07/M17 A3059 RMK AO2 SLP378 T10721167 400831106
KMTJ 100553Z AUTO 16009KT 10SM CLR M07/M16 A3059 RMK AO2 SLP382 T10671161 10044 21078 53010
KMTJ 100453Z AUTO 15006KT 10SM CLR M07/M16 A3058 RMK AO2 SLP380 T10671161
KMTJ 100353Z AUTO 16007KT 10SM CLR M06/M16 A3057 RMK AO2 SLP381 T10611156
KMTJ 100253Z AUTO 15007KT 10SM CLR M04/M15 A3056 RMK AO2 SLP382 T10391150 51018
KMTJ 100153Z AUTO 14007KT 10SM CLR M04/M15 A3054 RMK AO2 SLP379 T10441150
KMTJ 100053Z AUTO 16004KT 10SM CLR M02/M14 A3052 RMK AO2 SLP365 T10171144
KMTJ 092353Z AUTO 00000KT 10SM CLR 04/M13 A3050 RMK AO2 SLP345 T00441133 10083 20006 55004
KMTJ 092253Z AUTO 35004KT 10SM CLR 08/M14 A3049 RMK AO2 SLP332 T00781144
KMTJ 092153Z AUTO 28003KT 10SM CLR 08/M14 A3050 RMK AO2 SLP336 T00781139
KMTJ 092053Z AUTO 00000KT 10SM CLR 07/M13 A3051 RMK AO2 SLP340 T00671133 56026
KMTJ 091953Z AUTO 35003KT 10SM CLR 05/M13 A3053 RMK AO2 SLP353 T00501133
KMTJ 091853Z AUTO 00000KT 10SM CLR 03/M13 A3057 RMK AO2 SLP368 T00281128
KMTJ 091753Z AUTO VRB03KT 10SM CLR 00/M12 A3060 RMK AO2 SLP388 T00001122 10006 21106 58001
KMTJ 091653Z AUTO 00000KT 10SM CLR M01/M13 A3061 RMK AO2 SLP388 T10111128